Greensburg, Missouri
Current Conditions -  °F | °C
As of 9:55 PM on Sunday 28 Dec 2014 (Local Time) from KIRK Reporting Station
Clear Clear  
Wind Chill: 28°   Ceiling: Unl
Heat Index: 28°   Visibility: 10mi
Dew Point: 19°   Wind: 0mph
Humidity: 69%   Direction: NA
Pressure: 30.2"   Gusts: NA
Location:  40.2599°N, 92.2634°W
Report Text: KIRK 290355Z AUTO 00000KT 10SM CLR M02/M07 A3020 RMK AO2 SLP242 T10221072
Loading
Personal Weather Stations






























Interactive Weather Map New forecast layout! Learn more

10-Day Weather Forecast

Advertisements
Track Severe Weather on mobile